createdAt,value
2018-09-02T00:00:20.996Z,1022.26
2018-09-02T00:01:20.981Z,1022.31
2018-09-02T00:02:20.968Z,1022.30
2018-09-02T00:03:20.950Z,1022.30
2018-09-02T00:04:20.940Z,1022.32
2018-09-02T00:05:20.920Z,1022.34
2018-09-02T00:06:20.907Z,1022.32
2018-09-02T00:07:20.892Z,1022.31
2018-09-02T00:08:20.876Z,1022.31
2018-09-02T00:09:20.863Z,1022.30
2018-09-02T00:10:20.850Z,1022.30
2018-09-02T00:11:20.831Z,1022.33
2018-09-02T00:12:20.819Z,1022.35
2018-09-02T00:13:20.800Z,1022.35
2018-09-02T00:14:20.789Z,1022.38
2018-09-02T00:15:20.770Z,1022.36
2018-09-02T00:16:20.756Z,1022.37
2018-09-02T00:17:20.743Z,1022.35
2018-09-02T00:18:20.729Z,1022.37
2018-09-02T00:19:20.708Z,1022.34
2018-09-02T00:20:20.733Z,1022.36
2018-09-02T00:21:20.681Z,1022.36
2018-09-02T00:22:20.665Z,1022.34
2018-09-02T00:23:20.648Z,1022.35
2018-09-02T00:24:20.634Z,1022.30
2018-09-02T00:25:20.621Z,1022.27
2018-09-02T00:26:20.605Z,1022.28
2018-09-02T00:27:20.595Z,1022.25
2018-09-02T00:28:20.577Z,1022.28
2018-09-02T00:29:20.557Z,1022.27
2018-09-02T00:30:20.550Z,1022.27
2018-09-02T00:31:20.527Z,1022.26
2018-09-02T00:32:20.513Z,1022.28
2018-09-02T00:33:20.561Z,1022.25
2018-09-02T00:34:20.486Z,1022.28
2018-09-02T00:35:20.466Z,1022.28
2018-09-02T00:36:20.455Z,1022.26
2018-09-02T00:37:20.439Z,1022.29
2018-09-02T00:38:20.423Z,1022.30
2018-09-02T00:39:20.404Z,1022.27
2018-09-02T00:40:20.392Z,1022.31
2018-09-02T00:41:20.375Z,1022.34
2018-09-02T00:42:20.382Z,1022.31
2018-09-02T00:43:20.347Z,1022.30
2018-09-02T00:44:20.330Z,1022.29
2018-09-02T00:45:20.316Z,1022.31
2018-09-02T00:46:20.301Z,1022.28
2018-09-02T00:47:20.284Z,1022.25
2018-09-02T00:48:20.269Z,1022.28
2018-09-02T00:49:20.253Z,1022.29
2018-09-02T00:50:20.239Z,1022.23
2018-09-02T00:51:20.226Z,1022.27
2018-09-02T00:52:20.208Z,1022.18
2018-09-02T00:53:20.194Z,1022.18
2018-09-02T00:54:20.178Z,1022.20
2018-09-02T00:55:20.162Z,1022.16
2018-09-02T00:56:20.146Z,1022.15
2018-09-02T00:57:20.131Z,1022.22
2018-09-02T00:58:20.115Z,1022.16
2018-09-02T00:59:20.099Z,1022.21
2018-09-02T01:00:20.085Z,1022.20
2018-09-02T01:01:20.073Z,1022.19
2018-09-02T01:02:20.056Z,1022.21
2018-09-02T01:03:20.043Z,1022.25
2018-09-02T01:04:20.024Z,1022.24
2018-09-02T01:05:20.008Z,1022.25
2018-09-02T01:06:19.993Z,1022.21
2018-09-02T01:07:19.977Z,1022.25
2018-09-02T01:08:19.965Z,1022.21
2018-09-02T01:09:19.947Z,1022.21
2018-09-02T01:10:19.932Z,1022.22
2018-09-02T01:11:19.915Z,1022.18
2018-09-02T01:12:19.905Z,1022.17
2018-09-02T01:13:19.894Z,1022.18
2018-09-02T01:14:19.869Z,1022.15
2018-09-02T01:15:19.854Z,1022.15
2018-09-02T01:16:19.846Z,1022.15
2018-09-02T01:17:19.827Z,1022.14
2018-09-02T01:18:19.810Z,1022.10
2018-09-02T01:19:19.792Z,1022.07
2018-09-02T01:20:19.777Z,1022.13
2018-09-02T01:21:19.763Z,1022.12
2018-09-02T01:22:19.752Z,1022.11
2018-09-02T01:23:19.732Z,1022.07
2018-09-02T01:24:19.719Z,1022.07
2018-09-02T01:25:19.702Z,1022.05
2018-09-02T01:26:19.687Z,1022.03
2018-09-02T01:27:19.669Z,1022.00
2018-09-02T01:28:19.655Z,1022.01
2018-09-02T01:29:19.639Z,1022.00
2018-09-02T01:30:19.627Z,1022.00
2018-09-02T01:31:19.609Z,1021.99
2018-09-02T01:32:19.594Z,1021.99
2018-09-02T01:33:19.578Z,1021.99
2018-09-02T01:34:19.561Z,1022.00
2018-09-02T01:35:19.546Z,1022.00
2018-09-02T01:36:19.535Z,1021.96
2018-09-02T01:37:19.518Z,1021.95
2018-09-02T01:38:19.500Z,1021.93
2018-09-02T01:39:19.482Z,1021.98
2018-09-02T01:40:19.471Z,1021.94
2018-09-02T01:41:19.453Z,1021.98
2018-09-02T01:42:19.438Z,1021.97
2018-09-02T01:43:19.420Z,1022.01
2018-09-02T01:44:19.408Z,1022.03
2018-09-02T01:45:19.390Z,1022.06
2018-09-02T01:47:19.366Z,1022.08
2018-09-02T01:48:19.349Z,1022.08
2018-09-02T01:49:19.330Z,1022.08
2018-09-02T01:50:19.312Z,1022.07
2018-09-02T01:51:19.295Z,1022.03
2018-09-02T01:52:19.289Z,1022.06
2018-09-02T01:53:19.265Z,1022.08
2018-09-02T01:54:19.248Z,1022.06
2018-09-02T01:55:19.233Z,1022.10
2018-09-02T01:56:19.221Z,1022.12
2018-09-02T01:57:19.202Z,1022.05
2018-09-02T01:58:19.189Z,1022.10
2018-09-02T01:59:19.169Z,1022.09
2018-09-02T02:00:19.155Z,1022.11
2018-09-02T02:01:19.146Z,1022.07
2018-09-02T02:02:19.124Z,1022.08
2018-09-02T02:03:19.105Z,1022.07
2018-09-02T02:04:19.093Z,1022.05
2018-09-02T02:05:19.078Z,1022.10
2018-09-02T02:06:19.062Z,1022.07
2018-09-02T02:08:19.028Z,1022.03
2018-09-02T02:09:19.214Z,1022.01
2018-09-02T02:10:18.996Z,1022.04
2018-09-02T02:13:18.951Z,1022.01
2018-09-02T02:14:18.937Z,1022.03
2018-09-02T02:15:18.919Z,1022.05
2018-09-02T02:16:18.903Z,1022.02
2018-09-02T02:17:18.887Z,1022.04
2018-09-02T02:18:18.871Z,1022.02
2018-09-02T02:19:18.855Z,1022.00
2018-09-02T02:20:18.839Z,1021.98
2018-09-02T02:21:18.823Z,1022.00
2018-09-02T02:22:18.809Z,1021.96
2018-09-02T02:23:18.791Z,1022.01
2018-09-02T02:24:18.777Z,1022.03
2018-09-02T02:25:18.760Z,1021.99
2018-09-02T02:26:18.744Z,1022.01
2018-09-02T02:27:18.733Z,1022.06
2018-09-02T02:28:18.713Z,1022.05
2018-09-02T02:29:18.700Z,1022.08
2018-09-02T02:30:18.685Z,1022.10
2018-09-02T02:31:18.666Z,1022.05
2018-09-02T02:32:18.651Z,1022.05
2018-09-02T02:33:18.637Z,1022.03
2018-09-02T02:34:18.618Z,1022.01
2018-09-02T02:35:18.605Z,1022.01
2018-09-02T02:36:18.588Z,1021.98
2018-09-02T02:37:18.573Z,1022.00
2018-09-02T02:38:18.558Z,1021.96
2018-09-02T02:39:18.540Z,1022.00
2018-09-02T02:40:18.528Z,1021.97
2018-09-02T02:41:18.509Z,1021.92
2018-09-02T02:42:18.495Z,1021.89
2018-09-02T02:43:18.480Z,1021.92
2018-09-02T02:44:18.460Z,1021.93
2018-09-02T02:45:18.449Z,1021.97
2018-09-02T02:46:18.430Z,1021.96
2018-09-02T02:47:18.419Z,1021.99
2018-09-02T02:48:18.402Z,1022.01
2018-09-02T02:49:18.382Z,1022.03
2018-09-02T02:50:18.369Z,1022.05
2018-09-02T02:51:18.350Z,1021.99
2018-09-02T02:52:18.339Z,1022.03
2018-09-02T02:53:18.322Z,1022.04
2018-09-02T02:54:18.308Z,1022.00
2018-09-02T02:55:18.289Z,1022.04
2018-09-02T02:56:18.274Z,1022.04
2018-09-02T02:57:18.249Z,1022.06
2018-09-02T02:58:18.242Z,1022.05
2018-09-02T02:59:18.226Z,1022.05
2018-09-02T03:00:18.209Z,1022.06
2018-09-02T03:01:18.196Z,1022.06
2018-09-02T03:02:18.179Z,1022.05
2018-09-02T03:03:18.161Z,1022.06
2018-09-02T03:04:18.150Z,1022.01
2018-09-02T03:05:18.133Z,1022.02
2018-09-02T03:06:18.115Z,1022.00
2018-09-02T03:07:18.102Z,1021.98
2018-09-02T03:08:18.086Z,1021.98
2018-09-02T03:09:18.069Z,1021.95
2018-09-02T03:10:18.059Z,1021.96
2018-09-02T03:11:18.036Z,1021.99
2018-09-02T03:12:18.028Z,1021.95
2018-09-02T03:13:18.007Z,1021.94
2018-09-02T03:14:17.989Z,1021.96
2018-09-02T03:15:17.974Z,1021.93
2018-09-02T03:16:17.958Z,1021.93
2018-09-02T03:17:17.941Z,1021.97
2018-09-02T03:18:17.931Z,1021.95
2018-09-02T03:19:17.918Z,1021.91
2018-09-02T03:20:17.893Z,1021.93
2018-09-02T03:21:17.882Z,1021.88
2018-09-02T03:22:17.864Z,1021.90
2018-09-02T03:23:17.847Z,1021.88
2018-09-02T03:24:17.832Z,1021.91
2018-09-02T03:25:17.816Z,1021.92
2018-09-02T03:26:17.802Z,1021.93
2018-09-02T03:27:17.782Z,1021.90
2018-09-02T03:28:17.773Z,1021.95
2018-09-02T03:29:17.753Z,1021.93
2018-09-02T03:30:17.738Z,1021.93
2018-09-02T03:31:17.721Z,1021.89
2018-09-02T03:32:17.705Z,1021.90
2018-09-02T03:33:17.689Z,1021.91
2018-09-02T03:34:17.673Z,1021.93
2018-09-02T03:35:17.657Z,1021.93
2018-09-02T03:36:17.643Z,1021.94
2018-09-02T03:37:17.628Z,1021.94
2018-09-02T03:38:17.617Z,1021.89
2018-09-02T03:39:17.594Z,1021.87
2018-09-02T03:40:17.580Z,1021.86
2018-09-02T03:41:17.563Z,1021.83
2018-09-02T03:42:17.559Z,1021.86
2018-09-02T03:43:17.530Z,1021.84
2018-09-02T03:44:17.522Z,1021.88
2018-09-02T03:45:17.504Z,1021.90
2018-09-02T03:46:17.484Z,1021.86
2018-09-02T03:47:17.466Z,1021.88
2018-09-02T03:48:17.458Z,1021.83
2018-09-02T03:49:17.437Z,1021.85
2018-09-02T03:50:17.420Z,1021.80
2018-09-02T03:51:17.405Z,1021.84
2018-09-02T03:52:17.388Z,1021.80
2018-09-02T03:53:17.372Z,1021.80
2018-09-02T03:54:17.359Z,1021.82
2018-09-02T03:55:17.341Z,1021.81
2018-09-02T03:56:17.324Z,1021.85
2018-09-02T03:57:17.314Z,1021.85
2018-09-02T03:58:17.294Z,1021.85
2018-09-02T03:59:17.479Z,1021.83
2018-09-02T04:00:17.263Z,1021.83
2018-09-02T04:01:17.245Z,1021.81
2018-09-02T04:02:17.231Z,1021.78
2018-09-02T04:03:17.213Z,1021.79
2018-09-02T04:04:17.198Z,1021.78
2018-09-02T04:05:17.182Z,1021.74
2018-09-02T04:06:17.166Z,1021.76
2018-09-02T04:07:17.179Z,1021.75
2018-09-02T04:08:17.135Z,1021.74
2018-09-02T04:09:17.124Z,1021.73
2018-09-02T04:10:17.102Z,1021.73
2018-09-02T04:11:17.165Z,1021.74
2018-09-02T04:12:17.068Z,1021.75
2018-09-02T04:13:17.056Z,1021.75
2018-09-02T04:14:17.039Z,1021.74
2018-09-02T04:15:17.025Z,1021.78
2018-09-02T04:16:17.012Z,1021.80
2018-09-02T04:17:16.989Z,1021.78
2018-09-02T04:18:16.977Z,1021.79
2018-09-02T04:19:16.958Z,1021.80
2018-09-02T04:20:16.943Z,1021.79
2018-09-02T04:21:16.932Z,1021.81
2018-09-02T04:22:16.911Z,1021.82
2018-09-02T04:23:16.895Z,1021.82
2018-09-02T04:24:16.879Z,1021.85
2018-09-02T04:25:16.864Z,1021.83
2018-09-02T04:26:16.852Z,1021.84
2018-09-02T04:27:16.833Z,1021.90
2018-09-02T04:28:16.815Z,1021.88
2018-09-02T04:29:16.799Z,1021.90
2018-09-02T04:30:16.785Z,1021.90
2018-09-02T04:31:16.768Z,1021.88
2018-09-02T04:32:16.754Z,1021.88
2018-09-02T04:33:16.734Z,1021.91
2018-09-02T04:34:16.718Z,1021.89
2018-09-02T04:35:16.702Z,1021.94
2018-09-02T04:36:16.690Z,1021.92
2018-09-02T04:37:16.677Z,1021.96
2018-09-02T04:38:16.657Z,1021.95
2018-09-02T04:39:16.639Z,1021.97
2018-09-02T04:40:16.626Z,1021.98
2018-09-02T04:41:16.613Z,1021.97
2018-09-02T04:42:16.591Z,1021.98
2018-09-02T04:43:16.579Z,1021.94
2018-09-02T04:44:16.564Z,1021.99
2018-09-02T04:45:16.627Z,1021.96
2018-09-02T04:46:16.528Z,1021.94
2018-09-02T04:47:16.513Z,1022.00
2018-09-02T04:48:16.498Z,1021.99
2018-09-02T04:49:16.481Z,1021.99
2018-09-02T04:50:16.464Z,1021.94
2018-09-02T04:51:16.448Z,1022.00
2018-09-02T04:52:16.437Z,1021.98
2018-09-02T04:53:16.418Z,1021.94
2018-09-02T04:54:16.459Z,1021.93
2018-09-02T04:55:16.387Z,1021.94
2018-09-02T04:56:16.368Z,1021.89
2018-09-02T04:57:16.358Z,1021.88
2018-09-02T04:58:16.338Z,1021.87
2018-09-02T04:59:16.319Z,1021.91
2018-09-02T05:00:16.366Z,1021.94
2018-09-02T05:01:16.295Z,1021.91
2018-09-02T05:02:16.275Z,1021.92
2018-09-02T05:03:16.256Z,1021.94
2018-09-02T05:04:16.246Z,1021.95
2018-09-02T05:05:16.226Z,1021.99
2018-09-02T05:06:16.212Z,1021.96
2018-09-02T05:07:16.198Z,1021.95
2018-09-02T05:08:16.179Z,1021.97
2018-09-02T05:09:16.169Z,1021.97
2018-09-02T05:10:16.152Z,1021.93
2018-09-02T05:11:16.136Z,1021.94
2018-09-02T05:12:16.116Z,1021.98
2018-09-02T05:13:16.101Z,1022.02
2018-09-02T05:14:16.251Z,1021.98
2018-09-02T05:15:16.068Z,1021.99
2018-09-02T05:16:16.050Z,1021.98
2018-09-02T05:17:16.044Z,1022.00
2018-09-02T05:18:16.021Z,1021.94
2018-09-02T05:19:16.008Z,1021.93
2018-09-02T05:20:15.994Z,1021.95
2018-09-02T05:21:15.982Z,1021.94
2018-09-02T05:22:15.960Z,1021.94
2018-09-02T05:23:15.941Z,1021.98
2018-09-02T05:24:15.925Z,1021.98
2018-09-02T05:25:15.907Z,1021.96
2018-09-02T05:26:15.899Z,1021.94
2018-09-02T05:27:15.877Z,1021.98
2018-09-02T05:28:15.861Z,1021.99
2018-09-02T05:29:15.854Z,1021.99
2018-09-02T05:30:15.832Z,1021.97
2018-09-02T05:31:15.817Z,1021.95
2018-09-02T05:32:15.798Z,1021.97
2018-09-02T05:33:15.791Z,1021.96
2018-09-02T05:34:15.770Z,1022.00
2018-09-02T05:35:15.750Z,1021.97
2018-09-02T05:36:15.739Z,1022.00
2018-09-02T05:37:15.718Z,1021.97
2018-09-02T05:38:15.708Z,1022.03
2018-09-02T05:39:15.686Z,1021.99
2018-09-02T05:40:15.678Z,1022.01
2018-09-02T05:41:15.657Z,1021.97
2018-09-02T05:42:15.640Z,1021.97
2018-09-02T05:43:15.624Z,1022.00
2018-09-02T05:44:15.609Z,1021.97
2018-09-02T05:45:15.608Z,1021.95
2018-09-02T05:46:15.579Z,1021.97
2018-09-02T05:47:15.563Z,1021.93
2018-09-02T05:48:15.547Z,1021.94
2018-09-02T05:49:15.538Z,1021.92
2018-09-02T05:50:15.514Z,1021.92
2018-09-02T05:51:15.500Z,1021.89
2018-09-02T05:52:15.483Z,1021.92
2018-09-02T05:53:15.483Z,1021.92
2018-09-02T05:54:15.453Z,1021.91
2018-09-02T05:55:15.435Z,1021.93
2018-09-02T05:56:15.423Z,1021.86
2018-09-02T05:57:15.407Z,1021.85
2018-09-02T05:58:15.388Z,1021.84
2018-09-02T05:59:15.377Z,1021.84
2018-09-02T06:00:15.361Z,1021.83
2018-09-02T06:01:15.340Z,1021.83
2018-09-02T06:02:15.328Z,1021.80
2018-09-02T06:03:15.310Z,1021.80
2018-09-02T06:04:15.293Z,1021.79
2018-09-02T06:05:15.278Z,1021.81
2018-09-02T06:06:15.262Z,1021.82
2018-09-02T06:07:15.251Z,1021.83
2018-09-02T06:08:15.233Z,1021.84
2018-09-02T06:09:15.226Z,1021.86
2018-09-02T06:10:15.200Z,1021.81
2018-09-02T06:12:14.268Z,1021.85
2018-09-02T06:13:14.242Z,1021.85
2018-09-02T06:14:14.224Z,1021.85
2018-09-02T06:15:14.207Z,1021.86
2018-09-02T06:16:14.204Z,1021.84
2018-09-02T06:17:14.228Z,1021.84
2018-09-02T06:18:14.160Z,1021.82
2018-09-02T06:19:14.146Z,1021.82
2018-09-02T06:20:14.129Z,1021.87
2018-09-02T06:21:14.115Z,1021.87
2018-09-02T06:22:14.097Z,1021.83
2018-09-02T06:23:14.092Z,1021.81
2018-09-02T06:24:14.066Z,1021.82
2018-09-02T06:25:14.051Z,1021.81
2018-09-02T06:26:14.035Z,1021.79
2018-09-02T06:27:14.019Z,1021.77
2018-09-02T06:28:14.008Z,1021.78
2018-09-02T06:29:13.989Z,1021.81
2018-09-02T06:30:14.142Z,1021.84
2018-09-02T06:31:13.961Z,1021.83
2018-09-02T06:32:13.944Z,1021.87
2018-09-02T06:33:13.929Z,1021.78
2018-09-02T06:34:13.909Z,1021.75
2018-09-02T06:35:13.895Z,1021.72
2018-09-02T06:36:13.892Z,1021.73
2018-09-02T06:37:13.865Z,1021.71
2018-09-02T06:38:13.850Z,1021.78
2018-09-02T06:39:13.833Z,1021.77
2018-09-02T06:40:13.825Z,1021.71
2018-09-02T06:41:13.802Z,1021.71
2018-09-02T06:42:13.789Z,1021.70
2018-09-02T06:43:13.773Z,1021.68
2018-09-02T06:44:13.759Z,1021.60
2018-09-02T06:45:13.741Z,1021.65
2018-09-02T06:46:13.728Z,1021.62
2018-09-02T06:47:13.713Z,1021.62
2018-09-02T06:48:13.697Z,1021.62
2018-09-02T06:49:13.681Z,1021.61
2018-09-02T06:50:13.668Z,1021.59
2018-09-02T06:51:13.649Z,1021.61
2018-09-02T06:52:13.636Z,1021.59
2018-09-02T06:53:13.620Z,1021.58
2018-09-02T06:54:13.605Z,1021.58
2018-09-02T06:55:13.590Z,1021.59
2018-09-02T06:56:13.572Z,1021.58
2018-09-02T06:57:13.560Z,1021.58
2018-09-02T06:58:13.551Z,1021.57
2018-09-02T06:59:13.528Z,1021.56
2018-09-02T07:00:13.519Z,1021.59
2018-09-02T07:01:13.499Z,1021.63
2018-09-02T07:02:13.483Z,1021.62
2018-09-02T07:03:13.470Z,1021.59
2018-09-02T07:04:13.452Z,1021.63
2018-09-02T07:05:13.438Z,1021.66
2018-09-02T07:06:13.422Z,1021.65
2018-09-02T07:07:13.450Z,1021.69
2018-09-02T07:08:13.392Z,1021.67
2018-09-02T07:09:13.378Z,1021.71
2018-09-02T07:10:13.364Z,1021.73
2018-09-02T07:11:13.354Z,1021.79
2018-09-02T07:12:13.338Z,1021.74
2018-09-02T07:13:13.324Z,1021.73
2018-09-02T07:14:13.332Z,1021.73
2018-09-02T07:15:13.286Z,1021.74
2018-09-02T07:16:13.270Z,1021.77
2018-09-02T07:17:13.263Z,1021.78
2018-09-02T07:18:13.249Z,1021.91
2018-09-02T07:19:13.228Z,1021.93
2018-09-02T07:20:13.267Z,1021.92
2018-09-02T07:21:13.204Z,1021.91
2018-09-02T07:22:13.182Z,1021.88
2018-09-02T07:23:13.170Z,1021.87
2018-09-02T07:24:13.152Z,1021.87
2018-09-02T07:25:13.136Z,1021.84
2018-09-02T07:26:13.127Z,1021.82
2018-09-02T07:27:13.110Z,1021.81
2018-09-02T07:28:13.093Z,1021.76
2018-09-02T07:29:13.081Z,1021.78
2018-09-02T07:30:13.069Z,1021.76
2018-09-02T07:31:13.051Z,1021.77
2018-09-02T07:32:13.039Z,1021.81
2018-09-02T07:33:13.022Z,1021.76
2018-09-02T07:34:13.006Z,1021.79
2018-09-02T07:35:12.998Z,1021.79
2018-09-02T07:36:12.980Z,1021.81
2018-09-02T07:37:12.961Z,1021.82
2018-09-02T07:38:12.963Z,1021.78
2018-09-02T07:39:12.938Z,1021.81
2018-09-02T07:40:12.933Z,1021.83
2018-09-02T07:41:12.903Z,1021.82
2018-09-02T07:42:12.892Z,1021.85
2018-09-02T07:43:12.873Z,1021.80
2018-09-02T07:44:12.986Z,1021.83
2018-09-02T07:45:12.861Z,1021.81
2018-09-02T07:46:12.830Z,1021.84
2018-09-02T07:47:12.830Z,1021.81
2018-09-02T07:48:12.804Z,1021.84
2018-09-02T07:49:12.787Z,1021.85
2018-09-02T07:50:12.778Z,1021.88
2018-09-02T07:51:12.766Z,1021.87
2018-09-02T07:52:12.749Z,1021.90
2018-09-02T07:53:12.728Z,1021.86
2018-09-02T07:54:12.714Z,1021.86
2018-09-02T07:55:12.701Z,1021.90
2018-09-02T07:56:12.690Z,1021.88
2018-09-02T07:57:12.674Z,1021.85
2018-09-02T07:58:12.658Z,1021.84
2018-09-02T07:59:12.644Z,1021.84
2018-09-02T08:00:12.632Z,1021.86
2018-09-02T08:01:12.615Z,1021.87
2018-09-02T08:02:12.601Z,1021.88
2018-09-02T08:03:12.590Z,1021.92
2018-09-02T08:04:12.573Z,1021.90
2018-09-02T08:05:12.558Z,1021.86
2018-09-02T08:06:12.547Z,1021.87
2018-09-02T08:07:12.537Z,1021.84
2018-09-02T08:08:12.516Z,1021.81
2018-09-02T08:09:12.500Z,1021.79
2018-09-02T08:10:12.487Z,1021.76
2018-09-02T08:11:12.476Z,1021.80
2018-09-02T08:12:12.458Z,1021.76
2018-09-02T08:13:12.442Z,1021.78
2018-09-02T08:14:12.428Z,1021.80
2018-09-02T08:15:12.413Z,1021.77
2018-09-02T08:16:12.401Z,1021.78
2018-09-02T08:17:12.387Z,1021.80
2018-09-02T08:18:12.370Z,1021.82
2018-09-02T08:19:12.357Z,1021.80
2018-09-02T08:20:12.348Z,1021.80
2018-09-02T08:21:12.326Z,1021.80
2018-09-02T08:22:12.312Z,1021.82
2018-09-02T08:23:12.300Z,1021.80
2018-09-02T08:24:12.284Z,1021.85
2018-09-02T08:25:12.270Z,1021.80
2018-09-02T08:26:12.256Z,1021.80
2018-09-02T08:27:12.242Z,1021.80
2018-09-02T08:28:12.227Z,1021.80
2018-09-02T08:29:12.224Z,1021.85
2018-09-02T08:31:12.187Z,1021.79
2018-09-02T08:32:12.176Z,1021.81
2018-09-02T08:33:12.155Z,1021.80
2018-09-02T08:34:12.140Z,1021.76
2018-09-02T08:35:12.126Z,1021.76
2018-09-02T08:36:12.115Z,1021.70
2018-09-02T08:37:12.099Z,1021.75
2018-09-02T08:38:12.092Z,1021.70
2018-09-02T08:39:12.164Z,1021.77
2018-09-02T08:40:12.054Z,1021.75
2018-09-02T08:41:12.040Z,1021.72
2018-09-02T08:42:12.029Z,1021.70
2018-09-02T08:43:12.015Z,1021.80
2018-09-02T08:44:12.056Z,1021.77
2018-09-02T08:45:11.984Z,1021.77
2018-09-02T08:46:11.975Z,1021.79
2018-09-02T08:47:11.958Z,1021.76
2018-09-02T08:48:11.942Z,1021.77
2018-09-02T08:49:11.931Z,1021.70
2018-09-02T08:50:11.917Z,1021.72
2018-09-02T08:51:11.978Z,1021.74
2018-09-02T08:52:11.887Z,1021.75
2018-09-02T08:53:11.877Z,1021.80
2018-09-02T08:54:11.860Z,1021.82
2018-09-02T08:55:11.847Z,1021.79
2018-09-02T08:56:11.831Z,1021.83
2018-09-02T08:57:11.819Z,1021.79
2018-09-02T08:58:11.805Z,1021.77
2018-09-02T08:59:11.791Z,1021.77
2018-09-02T09:00:11.779Z,1021.75
2018-09-02T09:01:11.762Z,1021.72
2018-09-02T09:02:11.749Z,1021.78
2018-09-02T09:03:11.739Z,1021.74
2018-09-02T09:04:11.767Z,1021.70
2018-09-02T09:05:11.708Z,1021.74
2018-09-02T09:06:11.694Z,1021.74
2018-09-02T09:07:11.692Z,1021.75
2018-09-02T09:08:11.844Z,1021.71
2018-09-02T09:09:11.822Z,1021.70
2018-09-02T09:10:11.638Z,1021.68
2018-09-02T09:11:11.627Z,1021.71
2018-09-02T09:12:11.609Z,1021.65
2018-09-02T09:13:11.597Z,1021.68
2018-09-02T09:14:11.741Z,1021.64
2018-09-02T09:15:11.571Z,1021.66
2018-09-02T09:16:11.572Z,1021.67
2018-09-02T09:17:11.640Z,1021.67
2018-09-02T09:18:11.530Z,1021.72
2018-09-02T09:19:11.518Z,1021.70
2018-09-02T09:20:11.503Z,1021.70
2018-09-02T09:21:11.492Z,1021.70
2018-09-02T09:22:11.486Z,1021.72
2018-09-02T09:23:11.461Z,1021.70
2018-09-02T09:24:11.554Z,1021.72
2018-09-02T09:25:11.521Z,1021.69
2018-09-02T09:26:11.422Z,1021.67
2018-09-02T09:27:11.413Z,1021.72
2018-09-02T09:28:11.403Z,1021.73
2018-09-02T09:29:11.385Z,1021.69
2018-09-02T09:30:11.369Z,1021.69
2018-09-02T09:31:11.356Z,1021.64
2018-09-02T09:32:11.378Z,1021.67
2018-09-02T09:33:11.336Z,1021.68
2018-09-02T09:34:11.321Z,1021.67
2018-09-02T09:35:11.302Z,1021.66
2018-09-02T09:36:11.289Z,1021.65
2018-09-02T09:37:11.279Z,1021.65
2018-09-02T09:38:11.260Z,1021.66
2018-09-02T09:39:11.251Z,1021.63
2018-09-02T09:40:11.238Z,1021.61
2018-09-02T09:41:11.225Z,1021.62
2018-09-02T09:42:11.210Z,1021.62
2018-09-02T09:43:11.200Z,1021.57
2018-09-02T09:44:11.184Z,1021.55
2018-09-02T09:45:11.167Z,1021.57
2018-09-02T09:46:11.168Z,1021.55
2018-09-02T09:47:11.153Z,1021.53
2018-09-02T09:48:11.129Z,1021.54
2018-09-02T09:49:11.120Z,1021.54
2018-09-02T09:50:11.101Z,1021.51
2018-09-02T09:51:11.094Z,1021.52
2018-09-02T09:52:11.075Z,1021.56
2018-09-02T09:53:11.063Z,1021.51
2018-09-02T09:54:11.047Z,1021.56
2018-09-02T09:55:11.037Z,1021.55
2018-09-02T09:56:11.024Z,1021.52
2018-09-02T09:57:11.008Z,1021.53
2018-09-02T09:58:10.995Z,1021.61
2018-09-02T09:59:10.987Z,1021.57
2018-09-02T10:00:10.967Z,1021.59
2018-09-02T10:01:10.953Z,1021.62
2018-09-02T10:02:10.945Z,1021.59
2018-09-02T10:03:10.930Z,1021.59
2018-09-02T10:04:10.917Z,1021.56
2018-09-02T10:05:10.908Z,1021.55
2018-09-02T10:06:10.888Z,1021.56
2018-09-02T10:07:10.875Z,1021.50
2018-09-02T10:08:10.859Z,1021.49
2018-09-02T10:09:10.847Z,1021.43
2018-09-02T10:10:10.834Z,1021.35
2018-09-02T10:11:10.822Z,1021.37
2018-09-02T10:12:10.815Z,1021.35
2018-09-02T10:13:10.795Z,1021.32
2018-09-02T10:14:10.782Z,1021.30
2018-09-02T10:15:10.769Z,1021.27
2018-09-02T10:16:10.757Z,1021.27
2018-09-02T10:17:10.774Z,1021.20
2018-09-02T10:18:10.847Z,1021.21
2018-09-02T10:19:10.715Z,1021.21
2018-09-02T10:20:10.702Z,1021.20
2018-09-02T10:21:10.695Z,1021.22
2018-09-02T10:22:10.680Z,1021.20
2018-09-02T10:23:10.662Z,1021.23
2018-09-02T10:24:10.657Z,1021.24
2018-09-02T10:25:10.637Z,1021.18
2018-09-02T10:26:10.623Z,1021.18
2018-09-02T10:27:10.613Z,1021.15
2018-09-02T10:28:10.596Z,1021.14
2018-09-02T10:29:10.594Z,1021.13
2018-09-02T10:30:10.570Z,1021.07
2018-09-02T10:31:10.561Z,1021.09
2018-09-02T10:32:10.544Z,1021.09
2018-09-02T10:33:10.543Z,1021.09
2018-09-02T10:34:10.515Z,1021.06
2018-09-02T10:35:10.508Z,1021.06
2018-09-02T10:36:10.489Z,1021.07
2018-09-02T10:37:58.018Z,1020.97
2018-09-02T10:38:58.007Z,1020.98
2018-09-02T10:39:57.991Z,1020.98
2018-09-02T10:40:57.989Z,1021.00
2018-09-02T10:41:57.967Z,1020.96
2018-09-02T10:42:57.950Z,1020.96
2018-09-02T10:43:57.937Z,1020.94
2018-09-02T10:44:57.924Z,1020.85
2018-09-02T10:45:57.909Z,1020.84
2018-09-02T10:46:57.897Z,1020.85
2018-09-02T10:47:57.889Z,1020.82
2018-09-02T10:48:57.872Z,1020.80
2018-09-02T10:49:57.858Z,1020.78
2018-09-02T10:50:57.845Z,1020.74
2018-09-02T10:51:57.831Z,1020.74
2018-09-02T10:52:57.817Z,1020.66
2018-09-02T10:53:57.806Z,1020.66
2018-09-02T10:54:57.796Z,1020.70
2018-09-02T10:55:57.780Z,1020.73
2018-09-02T10:56:57.769Z,1020.67
2018-09-02T10:57:57.754Z,1020.65
2018-09-02T10:58:57.741Z,1020.62
2018-09-02T10:59:57.731Z,1020.63
2018-09-02T11:00:57.714Z,1020.65
2018-09-02T11:01:57.753Z,1020.56
2018-09-02T11:02:57.689Z,1020.58
2018-09-02T11:03:57.676Z,1020.56
2018-09-02T11:04:57.662Z,1020.53
2018-09-02T11:05:57.650Z,1020.52
2018-09-02T11:06:57.637Z,1020.51
2018-09-02T11:07:57.637Z,1020.49
2018-09-02T11:08:57.621Z,1020.47
2018-09-02T11:09:57.602Z,1020.50
2018-09-02T11:10:57.606Z,1020.45
2018-09-02T11:11:57.576Z,1020.44
2018-09-02T11:12:57.570Z,1020.43
2018-09-02T11:13:57.743Z,1020.39
2018-09-02T11:14:57.537Z,1020.37
2018-09-02T11:15:57.524Z,1020.42
2018-09-02T11:16:57.518Z,1020.39
2018-09-02T11:17:57.508Z,1020.34
2018-09-02T11:18:57.491Z,1020.36
2018-09-02T11:19:57.478Z,1020.31
2018-09-02T11:20:57.458Z,1020.32
2018-09-02T11:21:57.448Z,1020.30
2018-09-02T11:22:57.441Z,1020.30
2018-09-02T11:23:57.422Z,1020.26
2018-09-02T11:24:57.411Z,1020.25
2018-09-02T11:25:57.406Z,1020.25
2018-09-02T11:26:57.391Z,1020.23
2018-09-02T11:27:57.374Z,1020.26
2018-09-02T11:28:57.362Z,1020.22
2018-09-02T11:29:57.355Z,1020.27
2018-09-02T11:30:57.335Z,1020.25
2018-09-02T11:31:57.324Z,1020.17
2018-09-02T11:32:57.313Z,1020.18
2018-09-02T11:33:57.314Z,1020.22
2018-09-02T11:34:57.285Z,1020.23
2018-09-02T11:35:57.276Z,1020.19
2018-09-02T11:36:57.260Z,1020.19
2018-09-02T11:37:57.251Z,1020.18
2018-09-02T11:38:57.251Z,1020.15
2018-09-02T11:39:57.225Z,1020.18
2018-09-02T11:40:57.214Z,1020.09
2018-09-02T11:41:57.199Z,1020.09
2018-09-02T11:42:57.199Z,1020.09
2018-09-02T11:43:57.186Z,1020.06
2018-09-02T11:44:57.237Z,1020.03
2018-09-02T11:45:57.152Z,1020.04
2018-09-02T11:46:57.210Z,1020.05
2018-09-02T11:47:57.128Z,1020.04
2018-09-02T11:48:57.117Z,1020.02
2018-09-02T11:49:57.136Z,1020.03
2018-09-02T11:50:57.093Z,1020.03
2018-09-02T11:51:57.082Z,1020.01
2018-09-02T11:52:57.071Z,1019.97
2018-09-02T11:53:57.058Z,1019.98
2018-09-02T11:54:57.047Z,1019.93
2018-09-02T11:55:57.038Z,1019.91
2018-09-02T11:56:57.032Z,1019.93
2018-09-02T11:57:57.017Z,1019.86
2018-09-02T11:58:57.008Z,1019.90
2018-09-02T11:59:56.992Z,1019.83
2018-09-02T12:00:56.980Z,1019.81
2018-09-02T12:01:56.966Z,1019.79
2018-09-02T12:02:56.957Z,1019.82
2018-09-02T12:03:56.986Z,1019.73
2018-09-02T12:04:57.113Z,1019.74
2018-09-02T12:05:56.923Z,1019.70
2018-09-02T12:06:56.922Z,1019.76
2018-09-02T12:07:56.899Z,1019.62
2018-09-02T12:08:56.889Z,1019.63
2018-09-02T12:09:56.874Z,1019.64
2018-09-02T12:10:56.864Z,1019.64
2018-09-02T12:11:56.865Z,1019.64